Ambia, Indiana
Current Conditions -  °F | °C
As of 8:55 AM on Wednesday 26 Nov 2014 (Local Time) from KDNV Reporting Station
Overcast Overcast  
Wind Chill: 18°   Ceiling: 1100
Heat Index: 25°   Visibility: 10mi
Dew Point: 22°   Wind: 6mph
Humidity: 89%   Direction: 100°E
Pressure: 30.11"   Gusts: NA
Location:  40.49°N, 87.52°W
Report Text: KDNV 261355Z AUTO 10005KT 10SM OVC011 M04/M06 A3011 RMK AO2 T10401056
Loading
Personal Weather Stations






























Interactive Weather Map New forecast layout! Learn more

10-Day Weather Forecast

Advertisements
Track Severe Weather on mobile